Greenville Downtown Airport
KGMU : rendu visible

Aérodrome :











RETROUVEZ-NOUS SUR...

 
LOGIN :

S'inscrire | Disclaimer

   EN    FR    IT 

 









Légende :    VFR   VFR Marginal   IFR   IFR Intensif   IFR Très Intensif
Visi : 
Plafond : 
>= 8 km
>= 3000ft
5 à 8 km
1000 à 3000 ft
1500m à 5 km
500 à 1000 ft
800 à 1500m
200 à 500 ft
< 800m
< 200 ft
Symboles :   Orages  Brouillard  Fortes neiges  Fortes précipitations  Vent > 20 kt






- Altitude de l'aérodrome : 1048 ft


KGMU - Greenville Downtown

DERNIER METAR :
  • 171753Z 09012G15KT 10SM CLR 09/M08 A3060 RMK AO2 SLP366 T00941083 10100 20061 58004

METARs EXPIRÉS :
  • 171653Z 06010KT 10SM CLR 09/M09 A3063 RMK AO2 SLP377 T00891089
  • 171553Z 08010KT 10SM CLR 08/M08 A3065 RMK AO2 SLP380 T00781078
  • 171453Z 06011KT 10SM CLR 06/M08 A3061 RMK AO2 SLP370 T00611078 51025

TAF KGMU
Valide du 17 à 18h jusqu'au 18 à 18h UTC


171739Z 1718/1818 06009KT P6SM SCT120 SCT250
FM180700 06010KT P6SM SCT050 BKN120
FM181400 12003KT P6SM OVC030
PROB30 1815/1817 4SM -RA BR OVC015
FM181700 19003KT 6SM -RA BR OVC015



MET'MAP, la Météo Aéronautique d'un coup d'oeil ! - Copyright ORBIFLY Décembre 2007 - Disclaimer

ORBIFLY MET'MAP TEAM :

Programmation & Développement : Alexandra Zaïnal
Sur une idée originale de : Baudouin d'Aumeries
Assistance à la programmation : Marc-Olivier Méhu
Soutien technique & logistique : Manuel Goepfert

Contact : metmap@orbifly.com




SOURCES & CREDITS :

   NOAA       Earth
Advisory